Time;durP1;ratioP1;P1;durP2;ratioP2;P2;SDS_P1;SDS_P2;PMS_P1;PMS_P2;Temp;Humidity;BMP_temperature;BMP_pressure;BME280_temperature;BME280_humidity;BME280_pressure;Samples;Min_cycle;Max_cycle;Signal;HPM_P1;HPM_P2
2022/07/08 00:00:25;;;;;;;5.20;4.60;;;;;;;19.00;100.00;62837.03;5071859;28;20205;-74
2022/07/08 00:02:52;;;;;;;6.03;4.87;;;;;;;19.08;100.00;62841.06;5072049;28;20200;-73
2022/07/08 00:05:21;;;;;;;6.13;4.50;;;;;;;19.02;100.00;62834.59;5071719;28;20287;-74
2022/07/08 00:07:48;;;;;;;7.07;4.57;;;;;;;18.83;100.00;62814.06;5071986;28;20662;-74
2022/07/08 00:10:15;;;;;;;4.70;4.30;;;;;;;19.12;100.00;62850.00;5071593;28;20200;-73
2022/07/08 00:12:43;;;;;;;6.87;4.63;;;;;;;19.11;100.00;62849.47;5071768;28;20220;-74
2022/07/08 00:15:11;;;;;;;4.23;3.83;;;;;;;19.16;100.00;62854.88;5071860;28;20242;-73
2022/07/08 00:17:39;;;;;;;5.03;4.33;;;;;;;19.11;100.00;62844.31;5072095;28;20232;-74
2022/07/08 00:20:08;;;;;;;4.80;4.30;;;;;;;19.12;100.00;62847.97;5062090;28;20209;-74
2022/07/08 00:22:37;;;;;;;9.97;4.80;;;;;;;19.21;100.00;62859.72;5068607;28;20195;-75
2022/07/08 00:25:05;;;;;;;9.33;4.40;;;;;;;19.08;100.00;62841.06;5071754;28;20200;-74
2022/07/08 00:27:32;;;;;;;9.40;4.70;;;;;;;19.15;100.00;62848.63;5058424;28;20299;-75
2022/07/08 00:29:59;;;;;;;4.93;4.53;;;;;;;18.32;100.00;62758.97;5071766;28;20264;-75
2022/07/08 00:32:26;;;;;;;6.57;4.30;;;;;;;19.19;100.00;62852.94;5071543;28;20196;-74
2022/07/08 00:34:53;;;;;;;4.60;4.17;;;;;;;19.19;100.00;62852.94;5072028;28;20204;-73
2022/07/08 00:37:21;;;;;;;6.60;4.27;;;;;;;18.83;100.00;62819.25;5071314;28;20208;-75
2022/07/08 00:39:50;;;;;;;4.93;4.53;;;;;;;18.60;100.00;62789.22;5071638;28;20231;-74
2022/07/08 00:42:17;;;;;;;6.37;4.03;;;;;;;18.65;100.00;62797.22;5072319;28;20214;-74
2022/07/08 00:44:44;;;;;;;5.43;4.20;;;;;;;18.78;100.00;62811.25;5079210;28;20222;-74
2022/07/08 00:47:12;;;;;;;4.93;4.43;;;;;;;18.21;100.00;62747.13;5074539;28;20681;-73
2022/07/08 00:49:40;;;;;;;4.43;4.03;;;;;;;18.62;100.00;62796.00;5071656;28;20211;-74
2022/07/08 00:52:09;;;;;;;5.67;4.50;;;;;;;18.45;100.00;62773.56;5071465;28;20216;-73
2022/07/08 00:54:37;;;;;;;5.13;4.40;;;;;;;17.44;100.00;62667.69;5071319;28;20211;-73
2022/07/08 00:57:06;;;;;;;6.37;4.20;;;;;;;18.50;100.00;62778.44;5071193;28;20266;-75
2022/07/08 00:59:33;;;;;;;4.50;4.00;;;;;;;18.66;100.00;62795.16;5071278;28;20268;-75
2022/07/08 01:02:00;;;;;;;5.23;4.07;;;;;;;18.53;100.00;62784.78;5070140;28;20208;-74
2022/07/08 01:04:28;;;;;;;6.80;4.10;;;;;;;18.26;100.00;62757.66;5071266;28;20212;-74
2022/07/08 01:06:55;;;;;;;5.60;4.10;;;;;;;18.35;100.00;62767.38;5053153;28;20201;-75
2022/07/08 01:09:22;;;;;;;7.77;4.60;;;;;;;18.23;100.00;62754.44;5070994;28;20675;-74
2022/07/08 01:11:50;;;;;;;5.53;4.40;;;;;;;18.24;100.00;62752.94;5070956;28;20250;-74
2022/07/08 01:14:19;;;;;;;5.17;4.40;;;;;;;18.25;100.00;62751.44;5071177;28;20689;-74
2022/07/08 01:16:46;;;;;;;6.80;4.87;;;;;;;18.34;100.00;62761.16;5069888;28;20231;-73
2022/07/08 01:19:13;;;;;;;6.97;4.37;;;;;;;18.44;100.00;62777.66;5068834;28;20272;-74
2022/07/08 01:21:42;;;;;;;6.03;4.97;;;;;;;18.54;100.00;62787.91;5060234;28;20204;-74
2022/07/08 01:24:10;;;;;;;5.30;4.80;;;;;;;18.53;100.00;62784.25;5070206;28;20236;-74
2022/07/08 01:26:39;;;;;;;6.27;4.90;;;;;;;18.51;100.00;62779.53;5070983;28;20227;-75
2022/07/08 01:29:06;;;;;;;4.93;4.43;;;;;;;18.43;100.00;62774.00;5071043;28;20287;-73
2022/07/08 01:31:34;;;;;;;9.17;5.17;;;;;;;18.49;100.00;62777.38;5070899;28;20196;-74
2022/07/08 01:34:03;;;;;;;5.63;5.13;;;;;;;18.49;100.00;62782.53;5070637;28;20204;-73
2022/07/08 01:36:32;;;;;;;9.33;5.50;;;;;;;18.47;100.00;62775.22;5063054;28;20246;-74
2022/07/08 01:39:04;;;;;;;7.23;5.27;;;;;;;18.52;100.00;62780.59;5071003;28;20733;-76
2022/07/08 01:41:31;;;;;;;6.50;4.93;;;;;;;18.40;100.00;62767.63;5070609;28;20207;-76
2022/07/08 01:43:58;;;;;;;5.77;5.27;;;;;;;18.42;100.00;62775.47;5070573;28;20208;-75
2022/07/08 01:46:26;;;;;;;6.07;5.47;;;;;;;18.56;100.00;62784.91;5070995;28;20199;-74
2022/07/08 01:48:54;;;;;;;7.70;4.93;;;;;;;18.61;100.00;62800.63;5070950;28;20201;-75
2022/07/08 01:51:21;;;;;;;7.73;4.70;;;;;;;18.57;100.00;62786.00;5070958;28;20204;-74
2022/07/08 01:53:51;;;;;;;5.93;5.20;;;;;;;18.47;100.00;62780.38;5070281;28;20201;-73
2022/07/08 01:56:21;;;;;;;6.37;5.13;;;;;;;18.44;100.00;62774.53;5058127;28;20200;-73
2022/07/08 01:58:48;;;;;;;9.60;4.70;;;;;;;18.11;100.00;62738.91;5070806;28;20278;-74
2022/07/08 02:01:19;;;;;;;6.20;4.50;;;;;;;18.34;100.00;62763.72;5070688;28;20661;-73
2022/07/08 02:03:48;;;;;;;5.07;4.47;;;;;;;18.23;100.00;62749.28;5070313;28;20208;-74
2022/07/08 02:06:15;;;;;;;9.10;4.87;;;;;;;18.05;100.00;62732.97;5070313;28;20204;-74
2022/07/08 02:08:42;;;;;;;8.47;6.40;;;;;;;17.96;100.00;62723.25;5070590;28;20204;-74
2022/07/08 02:13:57;;;;;;;10.57;8.00;;;;;;;18.06;100.00;62734.03;5070649;28;20211;-73
2022/07/08 02:16:24;;;;;;;14.33;8.13;;;;;;;17.96;100.00;62725.84;5073668;28;20192;-73
2022/07/08 02:18:51;;;;;;;17.23;8.23;;;;;;;17.88;100.00;62714.06;5073962;28;20228;-75
2022/07/08 02:21:19;;;;;;;16.00;8.80;;;;;;;17.93;100.00;62722.06;5073860;28;20204;-73
2022/07/08 02:23:46;;;;;;;13.97;9.23;;;;;;;17.89;100.00;62717.75;5073916;28;20240;-74
2022/07/08 02:26:13;;;;;;;15.67;9.70;;;;;;;17.89;100.00;62715.16;5074619;28;20211;-73
2022/07/08 02:28:40;;;;;;;12.43;9.53;;;;;;;17.98;100.00;62722.28;5074395;28;20204;-74
2022/07/08 02:31:11;;;;;;;17.60;11.30;;;;;;;17.77;100.00;62702.75;5074274;28;20220;-74
2022/07/08 02:33:38;;;;;;;13.63;10.53;;;;;;;17.64;100.00;62686.69;5073633;28;20215;-73
2022/07/08 02:36:07;;;;;;;13.90;9.90;;;;;;;17.79;100.00;62707.47;5073951;28;20307;-73
2022/07/08 02:38:36;;;;;;;10.47;8.57;;;;;;;17.75;100.00;62698.00;5073574;28;20702;-74
2022/07/08 02:41:03;;;;;;;6.97;5.77;;;;;;;17.68;100.00;62693.59;5073468;28;20215;-75
2022/07/08 02:43:31;;;;;;;7.97;6.60;;;;;;;17.67;100.00;62695.09;5072142;28;20262;-75
2022/07/08 02:46:01;;;;;;;8.83;6.10;;;;;;;17.58;100.00;62682.81;5061781;28;20279;-73
2022/07/08 02:48:30;;;;;;;16.70;6.40;;;;;;;17.70;100.00;62697.78;5073494;28;20212;-74
2022/07/08 02:50:57;;;;;;;7.70;5.93;;;;;;;17.64;100.00;62689.28;5073851;28;20211;-74
2022/07/08 02:53:26;;;;;;;8.20;6.00;;;;;;;17.62;100.00;62689.16;5073189;28;20296;-73
2022/07/08 02:55:53;;;;;;;7.70;5.90;;;;;;;16.80;100.00;62601.25;5073517;28;20222;-74
2022/07/08 02:58:21;;;;;;;7.93;5.67;;;;;;;16.87;100.00;62606.22;5073463;28;20585;-74
2022/07/08 03:00:48;;;;;;;7.60;5.90;;;;;;;17.31;100.00;62651.06;5073298;28;20212;-73
2022/07/08 03:03:15;;;;;;;7.50;5.63;;;;;;;17.46;100.00;62667.25;5073413;28;20203;-74
2022/07/08 03:05:44;;;;;;;7.80;5.80;;;;;;;17.48;100.00;62674.56;5073080;28;20215;-74
2022/07/08 03:08:12;;;;;;;6.83;5.90;;;;;;;17.49;100.00;62675.13;5073563;28;20659;-75
2022/07/08 03:10:40;;;;;;;6.47;5.67;;;;;;;17.48;100.00;62668.88;5072867;28;20675;-73
2022/07/08 03:13:07;;;;;;;7.90;6.17;;;;;;;17.47;100.00;62670.38;5072892;28;20223;-75
2022/07/08 03:15:34;;;;;;;9.00;5.60;;;;;;;17.46;100.00;62666.72;5072654;28;20192;-74
2022/07/08 03:18:03;;;;;;;10.60;6.00;;;;;;;17.35;100.00;62655.41;5073241;28;20208;-74
2022/07/08 03:20:30;;;;;;;8.13;6.57;;;;;;;17.34;100.00;62656.91;5072719;28;20308;-75
2022/07/08 03:22:59;;;;;;;10.00;5.60;;;;;;;17.31;100.00;62656.22;5054835;28;20200;-74
2022/07/08 03:25:26;;;;;;;6.50;5.90;;;;;;;17.20;100.00;62639.22;5060325;28;20205;-74
2022/07/08 03:27:54;;;;;;;7.30;5.67;;;;;;;17.20;100.00;62639.22;5072775;28;20208;-74
2022/07/08 03:30:22;;;;;;;9.53;5.50;;;;;;;17.30;100.00;62655.16;5073213;28;20577;-75
2022/07/08 03:32:49;;;;;;;5.73;4.87;;;;;;;17.36;100.00;62659.06;5072452;28;20591;-74
2022/07/08 03:35:16;;;;;;;6.27;5.23;;;;;;;17.41;100.00;62667.00;5072721;28;20201;-74
2022/07/08 03:37:44;;;;;;;6.67;5.30;;;;;;;17.38;100.00;62658.09;5072490;28;20208;-75
2022/07/08 03:42:58;;;;;;;9.57;5.03;;;;;;;17.48;100.00;62674.56;5072721;28;20202;-76
2022/07/08 03:45:25;;;;;;;9.30;5.30;;;;;;;16.91;100.00;62613.09;5059018;28;20192;-73
2022/07/08 03:47:52;;;;;;;10.40;5.60;;;;;;;17.73;100.00;62700.47;5072607;28;20211;-73
2022/07/08 03:50:20;;;;;;;7.97;5.00;;;;;;;16.89;100.00;62608.91;5072693;28;20317;-74
2022/07/08 03:52:49;;;;;;;6.23;5.43;;;;;;;17.96;100.00;62722.72;5072806;28;20196;-74
2022/07/08 03:55:21;;;;;;;6.30;5.60;;;;;;;18.01;100.00;62731.22;5072185;28;20201;-75
2022/07/08 03:57:48;;;;;;;9.67;5.40;;;;;;;18.10;100.00;62737.81;5072265;28;20201;-74
2022/07/08 04:00:17;;;;;;;9.97;5.60;;;;;;;18.35;100.00;62767.38;5072059;28;20224;-74
2022/07/08 04:02:44;;;;;;;8.80;4.90;;;;;;;18.39;100.00;62769.66;5072296;28;20204;-76
2022/07/08 04:05:12;;;;;;;5.70;5.10;;;;;;;17.65;100.00;62690.34;5071989;28;20242;-75
2022/07/08 04:07:40;;;;;;;11.10;5.40;;;;;;;18.70;100.00;62800.03;5071941;28;20667;-75
2022/07/08 04:10:09;;;;;;;11.30;5.47;;;;;;;18.91;100.00;62822.72;5071884;28;20203;-75
2022/07/08 04:12:37;;;;;;;10.40;6.67;;;;;;;18.87;100.00;62823.00;5071057;28;20306;-75
2022/07/08 04:15:05;;;;;;;12.70;7.67;;;;;;;18.92;100.00;62823.78;5072742;28;20212;-75
2022/07/08 04:17:34;;;;;;;16.10;10.00;;;;;;;18.91;100.00;62822.72;5073463;28;20200;-73
2022/07/08 04:20:01;;;;;;;11.47;8.67;;;;;;;18.98;100.00;62830.25;5071666;28;20224;-72
2022/07/08 04:22:30;;;;;;;12.57;8.80;;;;;;;19.10;100.00;62842.69;5071935;28;20669;-74
2022/07/08 04:24:58;;;;;;;15.13;9.13;;;;;;;19.18;100.00;62853.91;5072341;28;20228;-74
2022/07/08 04:27:28;;;;;;;16.23;9.67;;;;;;;19.20;100.00;62853.47;5071763;28;20200;-74
2022/07/08 04:29:57;;;;;;;11.57;8.93;;;;;;;19.36;100.00;62870.78;5072226;28;20197;-74
2022/07/08 04:32:25;;;;;;;20.17;9.07;;;;;;;19.38;100.00;62872.41;5071590;28;20197;-74
2022/07/08 04:34:52;;;;;;;14.33;9.70;;;;;;;19.06;100.00;62841.47;5053207;28;20671;-75
2022/07/08 04:37:20;;;;;;;15.50;9.67;;;;;;;19.63;100.00;62899.41;5071297;28;20201;-75
2022/07/08 04:39:49;;;;;;;13.80;10.00;;;;;;;19.56;100.00;62894.44;5070827;28;20799;-75
2022/07/08 04:42:19;;;;;;;13.03;9.77;;;;;;;19.50;100.00;62885.38;5071448;28;20701;-75
2022/07/08 04:44:46;;;;;;;10.27;9.17;;;;;;;19.53;100.00;62888.63;5071310;28;20200;-75
2022/07/08 04:47:18;;;;;;;12.30;8.87;;;;;;;20.04;100.00;62943.75;5071266;28;20193;-75
2022/07/08 04:49:47;;;;;;;22.87;9.70;;;;;;;19.79;100.00;62919.31;5071449;28;20220;-74
2022/07/08 04:52:14;;;;;;;18.27;10.07;;;;;;;20.44;100.00;62987.03;5071221;28;20515;-75
2022/07/08 04:54:41;;;;;;;10.57;8.97;;;;;;;20.30;100.00;62974.47;5070970;28;20211;-75
2022/07/08 04:57:09;;;;;;;16.50;10.40;;;;;;;20.17;100.00;62957.78;5071200;28;20250;-74
2022/07/08 04:59:37;;;;;;;15.47;9.77;;;;;;;19.98;100.00;62937.25;5070632;28;20317;-73
2022/07/08 05:02:05;;;;;;;16.20;10.23;;;;;;;19.87;100.00;62925.34;5058149;28;20212;-73
2022/07/08 05:04:33;;;;;;;11.93;9.93;;;;;;;20.09;100.00;62949.16;5070624;28;20204;-74
2022/07/08 05:07:03;;;;;;;18.20;10.67;;;;;;;19.94;100.00;62938.09;5071040;28;20200;-74
2022/07/08 05:09:30;;;;;;;14.17;10.37;;;;;;;20.19;100.00;62963.09;5070920;28;20674;-75
2022/07/08 05:11:57;;;;;;;15.70;10.07;;;;;;;20.11;100.00;62951.31;5071328;28;20255;-74
2022/07/08 05:14:25;;;;;;;12.60;10.43;;;;;;;20.28;100.00;62969.72;5071080;28;20215;-74
2022/07/08 05:16:52;;;;;;;11.40;9.77;;;;;;;20.97;100.00;63044.34;5070822;28;20212;-76
2022/07/08 05:19:19;;;;;;;16.33;10.47;;;;;;;21.12;100.00;63060.06;5070845;28;20236;-74
2022/07/08 05:21:47;;;;;;;16.40;10.30;;;;;;;21.32;100.00;63083.75;5053284;28;20293;-74
2022/07/08 05:24:16;;;;;;;17.17;9.53;;;;;;;21.42;100.00;63095.13;5049151;28;20233;-74
2022/07/08 05:26:47;;;;;;;19.53;10.30;;;;;;;21.56;100.00;63107.13;5049197;28;20240;-74
2022/07/08 05:29:13;;;;;;;13.47;9.47;;;;;;;21.44;100.00;63091.56;5044578;28;20194;-72
2022/07/08 05:31:41;;;;;;;13.43;9.97;;;;;;;21.32;100.00;63075.97;5030751;28;20203;-74
2022/07/08 05:34:12;;;;;;;13.53;9.93;;;;;;;21.54;100.00;63104.97;5031138;28;20205;-74
2022/07/08 05:36:40;;;;;;;11.07;9.73;;;;;;;21.67;100.00;63119.56;5044913;28;20215;-73
2022/07/08 05:39:11;;;;;;;13.17;9.40;;;;;;;21.94;100.00;63148.28;5045559;28;20201;-74
2022/07/08 05:41:39;;;;;;;13.60;9.50;;;;;;;22.22;100.00;63183.81;5031123;28;20296;-74
2022/07/08 05:44:06;;;;;;;14.63;9.03;;;;;;;22.46;100.00;63207.22;5025217;28;20202;-73
2022/07/08 05:46:34;;;;;;;13.00;8.93;;;;;;;22.65;100.00;63222.09;5043070;28;20623;-75
2022/07/08 05:49:01;;;;;;;11.17;9.30;;;;;;;22.78;100.00;63238.25;5033433;28;20210;-73
2022/07/08 05:51:28;;;;;;;13.07;9.33;;;;;;;23.08;100.00;63270.75;5054841;28;20208;-72
2022/07/08 05:53:56;;;;;;;13.00;9.53;;;;;;;23.16;100.00;63279.44;5040235;28;20209;-76
2022/07/08 05:56:28;;;;;;;23.13;9.87;;;;;;;23.15;100.00;63275.72;5043465;28;20201;-72
2022/07/08 05:58:56;;;;;;;12.53;9.10;;;;;;;22.95;100.00;63256.66;5040113;28;20206;-73
2022/07/08 06:01:24;;;;;;;18.03;9.77;;;;;;;23.50;100.00;63316.31;5034972;28;20221;-74
2022/07/08 06:03:51;;;;;;;20.43;9.10;;;;;;;23.56;100.00;63325.41;5051101;28;20237;-75
2022/07/08 06:06:18;;;;;;;20.10;8.73;;;;;;;23.65;100.00;63334.63;5054634;28;20197;-74
2022/07/08 06:08:46;;;;;;;22.93;9.90;;;;;;;23.43;100.00;63308.72;5040886;28;20197;-74
2022/07/08 06:11:15;;;;;;;18.97;10.50;;;;;;;23.80;100.00;63348.31;5042638;28;20666;-74
2022/07/08 06:13:43;;;;;;;14.23;9.60;;;;;;;23.72;100.00;63342.22;5035116;28;20674;-74
2022/07/08 06:16:12;;;;;;;14.97;9.53;;;;;;;23.79;100.00;63349.81;5042719;28;20201;-72
2022/07/08 06:18:39;;;;;;;11.40;9.37;;;;;;;23.69;100.00;63339.50;5047843;28;20209;-74
2022/07/08 06:21:07;;;;;;;11.60;9.80;;;;;;;23.51;100.00;63317.38;5060985;28;20242;-72
2022/07/08 06:23:35;;;;;;;15.07;9.50;;;;;;;23.61;100.00;63328.22;5068006;28;20228;-72
2022/07/08 06:26:02;;;;;;;14.97;9.67;;;;;;;23.60;100.00;63324.00;5088493;28;20211;-73
2022/07/08 06:28:30;;;;;;;17.17;9.37;;;;;;;23.69;100.00;63336.38;5090214;28;20206;-75
2022/07/08 06:31:00;;;;;;;11.50;9.00;;;;;;;23.64;100.00;63326.28;5076788;28;20207;-74
2022/07/08 06:33:27;;;;;;;11.93;9.23;;;;;;;23.80;100.00;63350.91;5076711;28;20265;-75
2022/07/08 06:35:56;;;;;;;17.83;9.90;;;;;;;23.92;100.00;63361.31;5073991;28;20204;-73
2022/07/08 06:38:23;;;;;;;11.63;9.53;;;;;;;23.56;100.00;63322.28;5073890;28;20192;-75
2022/07/08 06:40:50;;;;;;;12.93;9.70;;;;;;;23.58;100.00;63325.00;5074900;28;20263;-74
2022/07/08 06:43:18;;;;;;;12.33;8.70;;;;;;;24.14;100.00;63390.41;5074228;28;20197;-74
2022/07/08 06:45:46;;;;;;;10.90;8.83;;;;;;;24.14;100.00;63385.75;5060116;28;20207;-73
2022/07/08 06:48:16;;;;;;;11.30;8.70;;;;;;;24.33;100.00;63405.81;5074770;28;20330;-74
2022/07/08 06:50:43;;;;;;;22.83;8.73;;;;;;;24.05;100.00;63375.44;5061017;28;20211;-74
2022/07/08 06:53:12;;;;;;;19.77;9.50;;;;;;;24.85;100.00;63461.75;5073666;28;20740;-73
2022/07/08 06:55:40;;;;;;;13.80;8.27;;;;;;;24.65;100.00;63440.53;5073671;28;20209;-75
2022/07/08 06:58:07;;;;;;;8.37;7.00;;;;;;;24.65;100.00;63440.03;5073151;28;20205;-75
2022/07/08 07:00:35;;;;;;;12.77;7.43;;;;;;;25.09;100.00;63493.03;5072881;28;20229;-75
2022/07/08 07:03:03;;;;;;;12.30;6.90;;;;;;;25.05;100.00;63480.88;5073262;28;20224;-74
2022/07/08 07:05:32;;;;;;;13.23;7.80;;;;;;;25.02;100.00;63485.41;5073702;28;20202;-73
2022/07/08 07:07:59;;;;;;;9.37;7.80;;;;;;;25.28;100.00;63508.44;5073671;28;20212;-74
2022/07/08 07:10:28;;;;;;;15.73;7.47;;;;;;;25.41;100.00;63522.03;5073598;28;20694;-75
2022/07/08 07:12:56;;;;;;;9.47;7.00;;;;;;;25.66;100.00;63544.53;5074209;28;20227;-74
2022/07/08 07:15:24;;;;;;;14.90;6.70;;;;;;;26.11;100.00;63600.19;5073579;28;20200;-73
2022/07/08 07:17:51;;;;;;;8.43;6.37;;;;;;;26.23;100.00;63610.63;5072919;28;20253;-74
2022/07/08 07:20:23;;;;;;;10.03;5.93;;;;;;;25.65;100.00;63548.66;5073127;28;20230;-74
2022/07/08 07:22:53;;;;;;;13.57;5.40;;;;;;;26.44;100.00;63636.06;5072825;28;20203;-74
2022/07/08 07:25:20;;;;;;;9.10;5.30;;;;;;;26.34;100.00;63619.97;5073234;28;20234;-73
2022/07/08 07:27:48;;;;;;;14.60;5.97;;;;;;;26.69;100.00;63665.84;5072842;28;20192;-74
2022/07/08 07:30:16;;;;;;;7.03;5.23;;;;;;;26.68;100.00;63659.56;5072863;28;20200;-73
2022/07/08 07:32:42;;;;;;;9.10;5.37;;;;;;;26.82;100.00;63677.41;5072535;28;20204;-75
2022/07/08 07:35:10;;;;;;;7.63;5.07;;;;;;;26.92;100.00;63685.66;5072937;28;20200;-75
2022/07/08 07:37:38;;;;;;;4.20;3.80;;;;;;;26.71;100.00;63668.06;5071838;28;20662;-74
2022/07/08 07:40:08;;;;;;;5.53;4.17;;;;;;;26.83;100.00;63673.25;5072491;28;20220;-75
2022/07/08 07:42:35;;;;;;;5.23;4.10;;;;;;;27.13;100.00;63713.72;5072588;28;20202;-75
2022/07/08 07:45:03;;;;;;;5.00;4.33;;;;;;;27.35;100.00;63732.47;5059086;28;20197;-73
2022/07/08 07:47:32;;;;;;;4.80;4.37;;;;;;;27.49;100.00;63752.94;5072718;28;20204;-76
2022/07/08 07:49:59;;;;;;;8.03;4.40;;;;;;;27.31;100.00;63728.09;5072441;28;20222;-74
2022/07/08 07:52:26;;;;;;;7.00;4.10;;;;;;;27.25;100.00;63721.00;5072927;28;20204;-74
2022/07/08 07:54:53;;;;;;;5.23;4.30;;;;;;;27.41;100.00;63741.59;5072076;28;20200;-74
2022/07/08 07:57:21;;;;;;;4.67;4.17;;;;;;;27.20;100.00;63716.13;5072184;28;20197;-73
2022/07/08 07:59:49;;;;;;;5.00;4.30;;;;;;;27.19;100.00;63717.66;5071940;28;20623;-74
2022/07/08 08:02:17;;;;;;;7.10;4.57;;;;;;;27.48;100.00;63751.84;5071598;28;20275;-75
2022/07/08 08:04:45;;;;;;;8.00;4.13;;;;;;;27.67;100.00;63768.81;5071949;28;20203;-75
2022/07/08 08:07:12;;;;;;;5.53;4.60;;;;;;;27.26;100.00;63722.66;5071900;28;20258;-74
2022/07/08 08:09:39;;;;;;;4.93;3.57;;;;;;;27.02;100.00;63696.53;5071981;28;20200;-75
2022/07/08 08:12:08;;;;;;;4.20;3.77;;;;;;;26.98;100.00;63692.19;5070902;28;20581;-75
2022/07/08 08:14:37;;;;;;;4.63;3.60;;;;;;;27.23;100.00;63724.63;5072411;28;20201;-74
2022/07/08 08:17:04;;;;;;;3.93;3.57;;;;;;;27.49;100.00;63752.94;5071686;28;20289;-74
2022/07/08 08:19:33;;;;;;;5.63;4.10;;;;;;;27.28;100.00;63724.28;5071737;28;20208;-74
2022/07/08 08:22:01;;;;;;;9.40;4.10;;;;;;;27.44;100.00;63742.25;5072127;28;20737;-75
2022/07/08 08:24:29;;;;;;;4.50;4.10;;;;;;;27.49;100.00;63747.69;5071613;28;20232;-74
2022/07/08 08:26:58;;;;;;;5.03;3.77;;;;;;;27.23;100.00;63718.84;5071778;28;20208;-76
2022/07/08 08:29:25;;;;;;;8.50;3.90;;;;;;;27.21;100.00;63717.19;5071695;28;20201;-74
2022/07/08 08:31:54;;;;;;;5.13;3.83;;;;;;;27.65;100.00;63769.78;5071768;28;20211;-74
2022/07/08 08:34:21;;;;;;;4.70;3.90;;;;;;;27.77;100.00;63774.47;5071503;28;20201;-75
2022/07/08 08:36:48;;;;;;;6.73;4.10;;;;;;;27.69;100.00;63771.00;5071620;28;20204;-73
2022/07/08 08:39:15;;;;;;;4.27;3.80;;;;;;;28.30;100.00;63837.97;5071255;28;20227;-74
2022/07/08 08:41:43;;;;;;;9.17;4.13;;;;;;;28.72;100.00;63880.56;5071385;28;20232;-75
2022/07/08 08:44:11;;;;;;;5.83;3.93;;;;;;;28.71;100.00;63879.47;5064873;28;20650;-76
2022/07/08 08:46:38;;;;;;;7.23;3.77;;;;;;;28.30;100.00;63834.78;5064562;28;20203;-73
2022/07/08 08:49:09;;;;;;;3.40;3.07;;;;;;;27.87;100.00;63793.72;5058514;28;20196;-73
2022/07/08 08:51:38;;;;;;;5.77;3.17;;;;;;;27.71;100.00;63768.47;5071105;28;20204;-73
2022/07/08 08:54:07;;;;;;;4.40;4.00;;;;;;;28.16;100.00;63820.09;5071070;28;20286;-74
2022/07/08 08:56:34;;;;;;;5.70;3.60;;;;;;;27.84;100.00;63790.47;5071044;28;20204;-74
2022/07/08 08:59:03;;;;;;;5.10;2.90;;;;;;;28.32;100.00;63837.53;5071131;28;20215;-73
2022/07/08 09:01:33;;;;;;;3.53;2.73;;;;;;;27.98;100.00;63799.94;5070653;28;20644;-74
2022/07/08 09:04:00;;;;;;;3.13;2.73;;;;;;;28.54;100.00;63860.94;5071377;28;20696;-74
2022/07/08 09:06:32;;;;;;;4.90;3.07;;;;;;;28.68;100.00;63876.19;5070634;28;20200;-73
2022/07/08 09:09:00;;;;;;;2.97;2.67;;;;;;;28.40;100.00;63846.22;5072067;28;20210;-74
2022/07/08 09:11:28;;;;;;;4.33;3.07;;;;;;;28.13;100.00;63816.28;5071392;28;20218;-73
2022/07/08 09:14:16;;;;;;;3.63;2.80;;;;;;;28.52;100.00;63858.75;5052818;28;20215;-75
2022/07/08 09:17:10;;;;;;;3.77;2.93;;;;;;;29.13;100.00;63925.22;5059032;28;20200;-74
2022/07/08 09:19:38;;;;;;;6.33;3.10;;;;;;;28.95;100.00;63907.69;5071000;28;20200;-74
2022/07/08 09:22:09;;;;;;;3.30;2.60;;;;;;;29.75;100.00;63989.13;5070663;28;20296;-74
2022/07/08 09:24:38;;;;;;;3.27;3.00;;;;;;;30.05;100.00;64019.19;5070309;28;20312;-73
2022/07/08 09:27:07;;;;;;;5.67;3.43;;;;;;;30.01;100.00;64017.47;5070790;28;20205;-74
2022/07/08 09:29:35;;;;;;;5.40;3.30;;;;;;;30.31;100.00;64050.22;5065929;28;20218;-74
2022/07/08 09:32:13;;;;;;;7.83;3.30;;;;;;;30.13;100.00;64033.19;5064633;28;20202;-74
2022/07/08 09:34:42;;;;;;;3.50;3.20;;;;;;;28.84;100.00;63893.63;5059725;28;20603;-75
2022/07/08 09:37:14;;;;;;;4.57;3.27;;;;;;;28.85;100.00;63894.19;5070489;28;20215;-75
2022/07/08 09:39:43;;;;;;;3.23;2.63;;;;;;;28.48;100.00;63854.41;5070723;28;20220;-73
2022/07/08 09:42:10;;;;;;;7.13;3.63;;;;;;;28.78;100.00;63884.47;5070504;28;20250;-75
2022/07/08 09:44:38;;;;;;;3.63;2.80;;;;;;;29.38;100.00;63946.16;5060479;28;20201;-74
2022/07/08 09:47:11;;;;;;;3.30;2.77;;;;;;;29.25;100.00;63942.47;5067838;28;20198;-74
2022/07/08 09:49:41;;;;;;;7.90;3.23;;;;;;;30.00;100.00;64019.00;5070860;28;20638;-76
2022/07/08 09:52:09;;;;;;;4.97;3.30;;;;;;;29.73;100.00;63989.56;5052469;28;20736;-73
2022/07/08 09:54:41;;;;;;;3.43;3.13;;;;;;;29.72;100.00;63989.03;5070682;28;20595;-75
2022/07/08 09:57:11;;;;;;;4.27;3.17;;;;;;;29.86;100.00;64003.75;5070656;28;20207;-75
2022/07/08 09:59:39;;;;;;;4.77;3.40;;;;;;;30.04;100.00;64023.38;5071101;28;20648;-74
2022/07/08 10:02:06;;;;;;;3.63;3.20;;;;;;;30.39;100.00;64064.19;5070669;28;20718;-75
2022/07/08 10:04:34;;;;;;;3.47;3.07;;;;;;;30.40;100.00;64062.66;5070266;28;20202;-75
2022/07/08 10:07:02;;;;;;;3.83;3.33;;;;;;;30.53;100.00;64076.84;5070355;28;20201;-75
2022/07/08 10:09:32;;;;;;;3.63;3.30;;;;;;;29.93;100.00;64014.00;5070372;28;20260;-75
2022/07/08 10:12:03;;;;;;;3.77;3.47;;;;;;;29.68;100.00;63989.38;5070525;28;20242;-76
2022/07/08 10:14:32;;;;;;;5.13;3.40;;;;;;;30.31;100.00;64052.84;5070620;28;20214;-74
2022/07/08 10:17:01;;;;;;;3.80;3.40;;;;;;;30.16;100.00;64036.47;5070421;28;20678;-77
2022/07/08 10:19:33;;;;;;;3.30;3.00;;;;;;;30.63;100.00;64093.00;5070062;28;20293;-73
2022/07/08 10:22:03;;;;;;;5.10;3.20;;;;;;;30.59;100.00;64083.38;5070563;28;20728;-74
2022/07/08 10:24:32;;;;;;;7.10;2.93;;;;;;;30.75;100.00;64100.84;5070479;28;20621;-75
2022/07/08 10:27:02;;;;;;;7.07;3.10;;;;;;;30.90;100.00;64110.88;5070337;28;20282;-74
2022/07/08 10:29:34;;;;;;;4.20;3.00;;;;;;;30.95;100.00;64122.13;5070548;28;20609;-75
2022/07/08 10:32:02;;;;;;;13.17;3.40;;;;;;;30.96;100.00;64122.69;5072074;28;20632;-75
2022/07/08 10:34:34;;;;;;;19.17;4.10;;;;;;;31.22;100.00;64153.69;5071468;28;20203;-73
2022/07/08 10:37:02;;;;;;;3.20;2.47;;;;;;;31.08;100.00;64135.78;5073831;28;20675;-74
2022/07/08 10:39:30;;;;;;;4.40;2.77;;;;;;;31.01;100.00;64128.16;5074364;28;20205;-74
2022/07/08 10:42:03;;;;;;;6.13;2.80;;;;;;;31.01;100.00;64128.16;5074999;28;20258;-73
2022/07/08 10:44:49;;;;;;;9.40;3.20;;;;;;;31.34;100.00;64164.16;5066704;28;20197;-74
2022/07/08 10:47:18;;;;;;;3.83;2.43;;;;;;;31.24;100.00;64150.59;5074402;28;20283;-72
2022/07/08 10:49:46;;;;;;;3.23;2.80;;;;;;;30.79;100.00;64105.19;5074248;28;20196;-75
2022/07/08 10:52:15;;;;;;;5.57;3.30;;;;;;;30.12;100.00;64032.09;5055234;28;20206;-74
2022/07/08 10:54:43;;;;;;;2.97;2.63;;;;;;;29.53;100.00;63967.75;5072977;28;20212;-73
2022/07/08 10:57:16;;;;;;;6.97;3.10;;;;;;;28.86;100.00;63893.19;5073748;28;20204;-76
2022/07/08 11:00:04;;;;;;;5.70;2.50;;;;;;;29.09;100.00;63915.63;5072795;28;20213;-74
2022/07/08 11:02:31;;;;;;;8.37;3.33;;;;;;;29.07;100.00;63923.94;5072999;28;20732;-74
2022/07/08 11:04:59;;;;;;;4.67;2.90;;;;;;;29.01;100.00;63909.53;5074137;28;20227;-75
2022/07/08 11:07:29;;;;;;;5.50;2.87;;;;;;;29.32;100.00;63944.88;5073508;28;20199;-74
2022/07/08 11:09:58;;;;;;;5.37;2.80;;;;;;;29.04;100.00;63914.88;5073231;28;20298;-74
2022/07/08 11:12:31;;;;;;;4.33;2.53;;;;;;;29.89;100.00;64007.56;5072893;28;20255;-75
2022/07/08 11:14:59;;;;;;;5.20;2.77;;;;;;;29.91;100.00;64009.19;5073390;28;20223;-73
2022/07/08 11:17:29;;;;;;;5.27;2.70;;;;;;;29.85;100.00;64002.66;5073001;28;20697;-73
2022/07/08 11:19:58;;;;;;;3.67;2.80;;;;;;;29.86;100.00;64001.13;5073433;28;20639;-76
2022/07/08 11:22:26;;;;;;;5.10;2.73;;;;;;;30.04;100.00;64026.00;5077105;28;20225;-74
2022/07/08 11:24:54;;;;;;;3.03;2.70;;;;;;;29.89;100.00;64009.63;5075510;28;20613;-74
2022/07/08 11:27:28;;;;;;;3.70;2.63;;;;;;;30.20;100.00;64040.81;5073414;28;20208;-75
2022/07/08 11:29:57;;;;;;;4.60;2.80;;;;;;;30.46;100.00;64068.66;5072815;28;20215;-75
2022/07/08 11:32:25;;;;;;;4.13;2.70;;;;;;;30.41;100.00;64063.75;5073174;28;20662;-74